Terminal Aerodrome Forecast
Issued by NWS

Home | Current Version | Previous Version | Text Only | Print | Product List | Glossary On
Versions: 1 2 3 4 5 6 7 8 9 10 11 12 13
718
FTUS43 KBIS 200541
TAFDIK
TAF
KDIK 200541Z 2006/2106 27007KT P6SM SKC
     FM201500 29006KT P6SM FEW025 SCT180
     FM202000 31005KT P6SM SCT010 OVC025
     FM210100 31005KT 3SM BR OVC015=

USA.gov is the U.S. government's official web portal to all federal, state and local government web resources and services.